createdAt,value
2023-01-03T00:00:49.510Z,18.65
2023-01-03T00:01:49.459Z,18.58
2023-01-03T00:02:49.517Z,18.67
2023-01-03T00:03:49.426Z,18.69
2023-01-03T00:04:50.208Z,18.60
2023-01-03T00:05:49.378Z,18.63
2023-01-03T00:06:49.364Z,18.62
2023-01-03T00:07:49.365Z,18.69
2023-01-03T00:08:49.352Z,18.70
2023-01-03T00:09:49.361Z,18.63
2023-01-03T00:10:49.350Z,18.65
2023-01-03T00:11:49.363Z,18.65
2023-01-03T00:12:49.355Z,18.65
2023-01-03T00:13:49.348Z,18.65
2023-01-03T00:14:49.347Z,18.57
2023-01-03T00:15:49.359Z,18.63
2023-01-03T00:16:49.419Z,18.67
2023-01-03T00:17:49.327Z,18.65
2023-01-03T00:18:49.366Z,18.65
2023-01-03T00:19:49.321Z,18.66
2023-01-03T00:20:49.323Z,18.57
2023-01-03T00:21:49.319Z,18.63
2023-01-03T00:22:49.325Z,18.62
2023-01-03T00:23:49.331Z,18.57
2023-01-03T00:24:49.319Z,18.58
2023-01-03T00:25:49.303Z,18.70
2023-01-03T00:26:49.319Z,18.58
2023-01-03T00:27:49.313Z,18.58
2023-01-03T00:28:49.304Z,18.58
2023-01-03T00:29:49.308Z,18.70
2023-01-03T00:30:49.354Z,18.63
2023-01-03T00:31:49.289Z,18.65
2023-01-03T00:32:49.313Z,18.58
2023-01-03T00:33:49.302Z,18.67
2023-01-03T00:34:49.321Z,18.57
2023-01-03T00:35:49.300Z,18.57
2023-01-03T00:36:49.300Z,18.62
2023-01-03T00:37:49.292Z,18.65
2023-01-03T00:38:49.279Z,18.58
2023-01-03T00:39:49.290Z,18.55
2023-01-03T00:40:49.274Z,18.62
2023-01-03T00:41:49.260Z,18.57
2023-01-03T00:42:49.264Z,18.55
2023-01-03T00:43:49.276Z,18.65
2023-01-03T00:44:49.271Z,18.58
2023-01-03T00:45:49.317Z,18.58
2023-01-03T00:46:49.275Z,18.58
2023-01-03T00:47:49.264Z,18.60
2023-01-03T00:48:49.264Z,18.57
2023-01-03T00:49:49.259Z,18.55
2023-01-03T00:50:49.273Z,18.62
2023-01-03T00:51:49.236Z,18.57
2023-01-03T00:52:49.259Z,18.54
2023-01-03T00:53:49.232Z,18.52
2023-01-03T00:54:49.237Z,18.55
2023-01-03T00:55:49.237Z,18.54
2023-01-03T00:56:49.242Z,18.57
2023-01-03T00:57:49.223Z,18.54
2023-01-03T00:58:49.246Z,18.54
2023-01-03T00:59:49.233Z,18.54
2023-01-03T01:00:49.213Z,18.58
2023-01-03T01:01:49.326Z,18.60
2023-01-03T01:02:49.400Z,18.60
2023-01-03T01:03:49.325Z,18.54
2023-01-03T01:04:49.213Z,18.54
2023-01-03T01:05:49.209Z,18.52
2023-01-03T01:06:49.228Z,18.63
2023-01-03T01:07:49.216Z,18.52
2023-01-03T01:08:49.209Z,18.57
2023-01-03T01:09:49.203Z,18.52
2023-01-03T01:10:49.197Z,18.51
2023-01-03T01:11:49.200Z,18.52
2023-01-03T01:12:49.208Z,18.48
2023-01-03T01:13:49.195Z,18.54
2023-01-03T01:14:49.213Z,18.50
2023-01-03T01:15:49.208Z,18.58
2023-01-03T01:16:49.190Z,18.51
2023-01-03T01:17:49.198Z,18.60
2023-01-03T01:18:49.202Z,18.57
2023-01-03T01:19:49.165Z,18.50
2023-01-03T01:20:49.174Z,18.57
2023-01-03T01:21:49.172Z,18.54
2023-01-03T01:22:49.272Z,18.50
2023-01-03T01:23:49.180Z,18.58
2023-01-03T01:24:49.165Z,18.51
2023-01-03T01:25:49.173Z,18.54
2023-01-03T01:26:49.160Z,18.55
2023-01-03T01:27:49.142Z,18.54
2023-01-03T01:28:49.150Z,18.55
2023-01-03T01:29:49.144Z,18.48
2023-01-03T01:30:49.183Z,18.54
2023-01-03T01:31:49.145Z,18.52
2023-01-03T01:32:49.144Z,18.54
2023-01-03T01:33:49.128Z,18.51
2023-01-03T01:34:49.146Z,18.57
2023-01-03T01:35:49.134Z,18.54
2023-01-03T01:36:49.140Z,18.45
2023-01-03T01:37:49.132Z,18.45
2023-01-03T01:38:49.155Z,18.51
2023-01-03T01:39:49.133Z,18.47
2023-01-03T01:40:49.123Z,18.44
2023-01-03T01:41:49.109Z,18.51
2023-01-03T01:42:49.108Z,18.45
2023-01-03T01:43:49.116Z,18.47
2023-01-03T01:44:49.120Z,18.48
2023-01-03T01:45:49.104Z,18.54
2023-01-03T01:46:49.196Z,18.52
2023-01-03T01:47:49.108Z,18.50
2023-01-03T01:48:49.104Z,18.54
2023-01-03T01:49:49.108Z,18.51
2023-01-03T01:50:49.098Z,18.48
2023-01-03T01:51:49.078Z,18.50
2023-01-03T01:52:49.082Z,18.50
2023-01-03T01:53:49.094Z,18.45
2023-01-03T01:54:49.115Z,18.47
2023-01-03T01:55:49.075Z,18.47
2023-01-03T01:56:49.066Z,18.48
2023-01-03T01:57:49.075Z,18.51
2023-01-03T01:58:49.064Z,18.45
2023-01-03T01:59:49.084Z,18.48
2023-01-03T02:00:49.075Z,18.47
2023-01-03T02:01:49.205Z,18.42
2023-01-03T02:02:49.220Z,18.45
2023-01-03T02:03:49.118Z,18.51
2023-01-03T02:04:49.050Z,18.45
2023-01-03T02:05:49.058Z,18.50
2023-01-03T02:06:49.039Z,18.45
2023-01-03T02:07:49.060Z,18.42
2023-01-03T02:08:49.050Z,18.50
2023-01-03T02:09:49.046Z,18.47
2023-01-03T02:10:49.050Z,18.42
2023-01-03T02:11:49.033Z,18.50
2023-01-03T02:12:49.022Z,18.50
2023-01-03T02:13:49.024Z,18.37
2023-01-03T02:14:49.031Z,18.41
2023-01-03T02:15:49.081Z,18.45
2023-01-03T02:16:49.025Z,18.41
2023-01-03T02:17:49.023Z,18.45
2023-01-03T02:18:49.035Z,18.44
2023-01-03T02:19:49.004Z,18.45
2023-01-03T02:20:49.018Z,18.42
2023-01-03T02:21:49.000Z,18.35
2023-01-03T02:22:49.002Z,18.42
2023-01-03T02:23:49.010Z,18.45
2023-01-03T02:24:48.994Z,18.36
2023-01-03T02:25:48.989Z,18.35
2023-01-03T02:26:49.023Z,18.39
2023-01-03T02:27:49.026Z,18.35
2023-01-03T02:28:48.995Z,18.41
2023-01-03T02:29:49.000Z,18.37
2023-01-03T02:30:49.185Z,18.27
2023-01-03T02:31:48.975Z,18.33
2023-01-03T02:32:48.978Z,18.35
2023-01-03T02:33:48.963Z,18.37
2023-01-03T02:34:48.994Z,18.36
2023-01-03T02:35:48.992Z,18.37
2023-01-03T02:36:48.984Z,18.36
2023-01-03T02:37:48.956Z,18.33
2023-01-03T02:38:48.958Z,18.35
2023-01-03T02:39:48.948Z,18.30
2023-01-03T02:40:48.963Z,18.39
2023-01-03T02:41:48.952Z,18.35
2023-01-03T02:42:48.993Z,18.33
2023-01-03T02:43:48.969Z,18.32
2023-01-03T02:44:48.953Z,18.36
2023-01-03T02:45:48.957Z,18.26
2023-01-03T02:46:48.990Z,18.27
2023-01-03T02:47:48.952Z,18.27
2023-01-03T02:48:48.926Z,18.27
2023-01-03T02:49:48.935Z,18.30
2023-01-03T02:50:48.944Z,18.29
2023-01-03T02:51:48.921Z,18.29
2023-01-03T02:52:48.940Z,18.29
2023-01-03T02:53:48.929Z,18.32
2023-01-03T02:54:48.933Z,18.32
2023-01-03T02:55:48.908Z,18.33
2023-01-03T02:56:48.909Z,18.35
2023-01-03T02:57:48.921Z,18.30
2023-01-03T02:58:48.920Z,18.29
2023-01-03T02:59:48.903Z,18.32
2023-01-03T03:00:48.903Z,18.27
2023-01-03T03:01:49.050Z,18.33
2023-01-03T03:02:49.068Z,18.26
2023-01-03T03:03:48.975Z,18.33
2023-01-03T03:04:48.902Z,18.29
2023-01-03T03:05:48.882Z,18.27
2023-01-03T03:06:48.885Z,18.26
2023-01-03T03:07:48.881Z,18.33
2023-01-03T03:08:48.890Z,18.29
2023-01-03T03:09:48.870Z,18.27
2023-01-03T03:10:48.879Z,18.23
2023-01-03T03:11:48.933Z,18.25
2023-01-03T03:12:48.858Z,18.21
2023-01-03T03:13:48.861Z,18.25
2023-01-03T03:14:48.875Z,18.26
2023-01-03T03:15:48.922Z,18.23
2023-01-03T03:16:48.875Z,18.21
2023-01-03T03:17:48.841Z,18.30
2023-01-03T03:18:48.846Z,18.32
2023-01-03T03:19:48.843Z,18.23
2023-01-03T03:20:48.853Z,18.32
2023-01-03T03:21:48.847Z,18.25
2023-01-03T03:22:48.827Z,18.26
2023-01-03T03:23:48.836Z,18.25
2023-01-03T03:24:48.836Z,18.21
2023-01-03T03:25:48.833Z,18.21
2023-01-03T03:26:48.833Z,18.25
2023-01-03T03:27:48.823Z,18.18
2023-01-03T03:28:48.828Z,18.20
2023-01-03T03:29:48.816Z,18.23
2023-01-03T03:30:48.826Z,18.21
2023-01-03T03:31:48.926Z,18.21
2023-01-03T03:32:48.823Z,18.17
2023-01-03T03:33:48.822Z,18.17
2023-01-03T03:34:48.808Z,18.18
2023-01-03T03:35:48.814Z,18.17
2023-01-03T03:36:48.811Z,18.18
2023-01-03T03:37:48.795Z,18.20
2023-01-03T03:38:48.818Z,18.18
2023-01-03T03:39:48.800Z,18.15
2023-01-03T03:40:48.781Z,18.20
2023-01-03T03:41:48.784Z,18.14
2023-01-03T03:42:48.795Z,18.20
2023-01-03T03:43:48.782Z,18.21
2023-01-03T03:44:48.769Z,18.17
2023-01-03T03:45:48.769Z,18.15
2023-01-03T03:46:54.459Z,18.17
2023-01-03T03:47:48.767Z,18.18
2023-01-03T03:48:48.769Z,18.20
2023-01-03T03:49:48.772Z,18.18
2023-01-03T03:50:48.765Z,18.17
2023-01-03T03:51:48.783Z,18.12
2023-01-03T03:52:48.757Z,18.12
2023-01-03T03:53:48.761Z,18.14
2023-01-03T03:54:48.736Z,18.17
2023-01-03T03:55:48.742Z,18.18
2023-01-03T03:56:48.751Z,18.18
2023-01-03T03:57:48.751Z,18.11
2023-01-03T03:58:48.731Z,18.08
2023-01-03T03:59:48.747Z,18.12
2023-01-03T04:00:48.739Z,18.11
2023-01-03T04:01:48.869Z,18.23
2023-01-03T04:02:48.832Z,18.20
2023-01-03T04:03:48.757Z,18.11
2023-01-03T04:04:48.713Z,18.26
2023-01-03T04:05:48.724Z,18.18
2023-01-03T04:06:48.759Z,18.18
2023-01-03T04:07:48.720Z,18.14
2023-01-03T04:08:48.716Z,18.17
2023-01-03T04:09:48.704Z,18.25
2023-01-03T04:10:48.709Z,18.15
2023-01-03T04:11:48.708Z,18.26
2023-01-03T04:12:48.693Z,18.11
2023-01-03T04:13:48.709Z,18.20
2023-01-03T04:14:48.707Z,18.11
2023-01-03T04:15:48.705Z,18.23
2023-01-03T04:16:48.739Z,18.05
2023-01-03T04:17:48.693Z,18.11
2023-01-03T04:18:48.691Z,18.18
2023-01-03T04:19:48.678Z,18.17
2023-01-03T04:20:48.682Z,18.15
2023-01-03T04:21:48.673Z,18.11
2023-01-03T04:22:48.668Z,18.18
2023-01-03T04:23:48.661Z,18.08
2023-01-03T04:24:48.665Z,18.17
2023-01-03T04:25:48.653Z,18.08
2023-01-03T04:26:48.657Z,18.05
2023-01-03T04:27:48.653Z,18.17
2023-01-03T04:28:48.656Z,18.10
2023-01-03T04:29:48.649Z,18.17
2023-01-03T04:30:48.636Z,18.17
2023-01-03T04:31:48.660Z,18.10
2023-01-03T04:32:48.634Z,18.10
2023-01-03T04:33:48.644Z,18.11
2023-01-03T04:34:48.660Z,18.20
2023-01-03T04:35:48.643Z,18.03
2023-01-03T04:36:48.623Z,18.03
2023-01-03T04:37:48.628Z,18.12
2023-01-03T04:38:48.621Z,18.02
2023-01-03T04:39:48.614Z,18.15
2023-01-03T04:40:48.635Z,18.08
2023-01-03T04:41:48.615Z,18.10
2023-01-03T04:42:48.614Z,18.05
2023-01-03T04:43:48.621Z,18.05
2023-01-03T04:44:48.595Z,18.02
2023-01-03T04:45:48.680Z,18.07
2023-01-03T04:46:52.744Z,18.05
2023-01-03T04:47:48.611Z,18.03
2023-01-03T04:48:48.597Z,18.03
2023-01-03T04:49:48.587Z,18.03
2023-01-03T04:50:48.604Z,18.02
2023-01-03T04:51:48.632Z,18.02
2023-01-03T04:52:48.571Z,18.02
2023-01-03T04:53:48.599Z,18.00
2023-01-03T04:54:48.569Z,18.07
2023-01-03T04:55:48.588Z,18.02
2023-01-03T04:56:48.562Z,18.05
2023-01-03T04:57:48.571Z,18.03
2023-01-03T04:58:48.570Z,18.05
2023-01-03T04:59:48.567Z,18.00
2023-01-03T05:00:48.577Z,18.00
2023-01-03T05:01:48.636Z,18.03
2023-01-03T05:02:48.539Z,18.03
2023-01-03T05:03:48.589Z,18.08
2023-01-03T05:04:48.539Z,18.00
2023-01-03T05:05:48.549Z,18.08
2023-01-03T05:06:48.574Z,18.00
2023-01-03T05:07:48.547Z,18.03
2023-01-03T05:08:48.541Z,18.05
2023-01-03T05:09:48.540Z,18.03
2023-01-03T05:10:48.538Z,18.08
2023-01-03T05:11:48.520Z,18.03
2023-01-03T05:12:48.514Z,18.03
2023-01-03T05:13:48.525Z,18.05
2023-01-03T05:14:48.521Z,18.00
2023-01-03T05:15:48.531Z,18.05
2023-01-03T05:16:48.576Z,18.00
2023-01-03T05:17:48.518Z,18.10
2023-01-03T05:18:48.496Z,18.02
2023-01-03T05:19:48.498Z,18.00
2023-01-03T05:20:48.512Z,18.00
2023-01-03T05:21:48.505Z,18.10
2023-01-03T05:22:48.527Z,18.05
2023-01-03T05:23:48.507Z,18.03
2023-01-03T05:24:48.483Z,17.96
2023-01-03T05:25:48.499Z,18.08
2023-01-03T05:26:48.489Z,17.99
2023-01-03T05:27:48.495Z,17.96
2023-01-03T05:28:48.477Z,18.03
2023-01-03T05:29:48.473Z,17.99
2023-01-03T05:30:48.472Z,17.99
2023-01-03T05:31:48.575Z,18.12
2023-01-03T05:32:48.454Z,17.97
2023-01-03T05:33:48.490Z,17.99
2023-01-03T05:34:48.461Z,17.99
2023-01-03T05:35:48.483Z,17.95
2023-01-03T05:36:48.491Z,17.99
2023-01-03T05:37:48.497Z,17.97
2023-01-03T05:38:48.461Z,17.93
2023-01-03T05:39:48.454Z,17.95
2023-01-03T05:40:48.435Z,17.93
2023-01-03T05:41:48.450Z,18.00
2023-01-03T05:42:48.438Z,17.96
2023-01-03T05:43:48.461Z,18.02
2023-01-03T05:44:48.418Z,18.08
2023-01-03T05:45:48.500Z,17.99
2023-01-03T05:46:48.420Z,17.93
2023-01-03T05:47:48.437Z,17.95
2023-01-03T05:48:48.425Z,17.93
2023-01-03T05:49:48.423Z,17.99
2023-01-03T05:50:48.412Z,17.97
2023-01-03T05:51:48.421Z,17.99
2023-01-03T05:52:48.410Z,17.96
2023-01-03T05:53:48.423Z,17.96
2023-01-03T05:54:48.416Z,18.00
2023-01-03T05:55:48.408Z,17.96
2023-01-03T05:56:48.412Z,18.00
2023-01-03T05:57:48.387Z,18.00
2023-01-03T05:58:48.395Z,17.93
2023-01-03T05:59:48.403Z,17.92
2023-01-03T06:00:48.387Z,18.03
2023-01-03T06:01:48.581Z,17.92
2023-01-03T06:02:48.388Z,18.00
2023-01-03T06:03:48.470Z,17.96
2023-01-03T06:04:48.438Z,18.00
2023-01-03T06:05:50.538Z,18.02
2023-01-03T06:06:48.370Z,18.00
2023-01-03T06:07:48.373Z,18.00
2023-01-03T06:08:48.360Z,17.93
2023-01-03T06:09:48.366Z,18.02
2023-01-03T06:10:48.364Z,17.99
2023-01-03T06:11:48.356Z,17.92
2023-01-03T06:12:48.352Z,17.99
2023-01-03T06:13:48.350Z,18.00
2023-01-03T06:14:48.331Z,17.93
2023-01-03T06:15:48.339Z,17.92
2023-01-03T06:16:48.412Z,17.97
2023-01-03T06:17:48.342Z,17.90
2023-01-03T06:18:48.337Z,17.89
2023-01-03T06:19:48.321Z,17.99
2023-01-03T06:20:48.317Z,17.99
2023-01-03T06:21:48.315Z,17.96
2023-01-03T06:22:48.326Z,18.00
2023-01-03T06:23:48.326Z,18.00
2023-01-03T06:24:48.305Z,18.00
2023-01-03T06:25:48.308Z,17.95
2023-01-03T06:26:48.364Z,18.03
2023-01-03T06:27:48.294Z,17.95
2023-01-03T06:28:48.303Z,17.99
2023-01-03T06:29:48.312Z,17.97
2023-01-03T06:30:48.314Z,18.00
2023-01-03T06:31:48.292Z,17.96
2023-01-03T06:32:48.281Z,18.00
2023-01-03T06:33:48.285Z,17.87
2023-01-03T06:34:48.284Z,18.08
2023-01-03T06:35:48.276Z,17.95
2023-01-03T06:36:48.279Z,18.03
2023-01-03T06:37:48.277Z,17.96
2023-01-03T06:38:48.298Z,17.97
2023-01-03T06:39:48.263Z,17.89
2023-01-03T06:40:48.260Z,17.90
2023-01-03T06:41:48.273Z,17.89
2023-01-03T06:42:48.320Z,17.92
2023-01-03T06:43:48.256Z,17.89
2023-01-03T06:44:48.256Z,17.87
2023-01-03T06:45:48.303Z,17.92
2023-01-03T06:46:48.439Z,18.00
2023-01-03T06:47:48.253Z,17.87
2023-01-03T06:48:48.233Z,17.86
2023-01-03T06:49:48.246Z,17.93
2023-01-03T06:50:48.241Z,17.97
2023-01-03T06:51:48.245Z,17.92
2023-01-03T06:52:48.282Z,17.92
2023-01-03T06:53:48.232Z,17.87
2023-01-03T06:54:48.217Z,17.95
2023-01-03T06:55:54.539Z,17.96
2023-01-03T06:56:48.219Z,17.89
2023-01-03T06:57:48.205Z,17.90
2023-01-03T06:58:48.220Z,17.93
2023-01-03T06:59:48.203Z,17.95
2023-01-03T07:00:48.207Z,17.87
2023-01-03T07:01:48.383Z,17.93
2023-01-03T07:02:48.349Z,17.89
2023-01-03T07:03:48.205Z,17.90
2023-01-03T07:04:48.275Z,17.90
2023-01-03T07:05:48.189Z,17.92
2023-01-03T07:06:48.192Z,17.90
2023-01-03T07:07:48.185Z,17.92
2023-01-03T07:08:48.822Z,17.89
2023-01-03T07:09:48.219Z,17.90
2023-01-03T07:10:48.185Z,17.92
2023-01-03T07:11:48.199Z,17.92
2023-01-03T07:12:48.174Z,17.87
2023-01-03T07:13:48.189Z,17.93
2023-01-03T07:14:48.179Z,17.84
2023-01-03T07:15:48.240Z,17.82
2023-01-03T07:16:48.169Z,17.86
2023-01-03T07:17:48.165Z,17.93
2023-01-03T07:18:54.948Z,17.90
2023-01-03T07:19:48.161Z,17.93
2023-01-03T07:20:48.151Z,17.89
2023-01-03T07:21:48.161Z,17.93
2023-01-03T07:22:48.168Z,17.93
2023-01-03T07:23:48.149Z,17.89
2023-01-03T07:24:48.125Z,17.79
2023-01-03T07:25:48.125Z,17.82
2023-01-03T07:26:48.139Z,17.89
2023-01-03T07:27:48.136Z,17.86
2023-01-03T07:28:48.119Z,17.84
2023-01-03T07:29:48.122Z,17.89
2023-01-03T07:30:48.150Z,17.84
2023-01-03T07:31:48.171Z,17.87
2023-01-03T07:32:48.108Z,17.82
2023-01-03T07:33:48.096Z,17.84
2023-01-03T07:34:48.097Z,17.87
2023-01-03T07:35:48.130Z,17.87
2023-01-03T07:36:48.108Z,17.90
2023-01-03T07:37:48.083Z,17.82
2023-01-03T07:38:48.114Z,17.81
2023-01-03T07:39:48.103Z,17.78
2023-01-03T07:40:48.079Z,17.82
2023-01-03T07:41:48.090Z,17.81
2023-01-03T07:42:48.075Z,17.89
2023-01-03T07:43:48.090Z,17.87
2023-01-03T07:44:48.116Z,17.82
2023-01-03T07:45:48.256Z,17.79
2023-01-03T07:46:48.208Z,17.87
2023-01-03T07:47:48.075Z,17.89
2023-01-03T07:48:48.069Z,17.81
2023-01-03T07:49:48.061Z,17.82
2023-01-03T07:50:48.065Z,17.82
2023-01-03T07:51:48.055Z,17.82
2023-01-03T07:52:48.071Z,17.86
2023-01-03T07:53:48.057Z,17.79
2023-01-03T07:54:48.054Z,17.81
2023-01-03T07:55:48.034Z,17.86
2023-01-03T07:56:48.045Z,17.82
2023-01-03T07:57:48.027Z,17.90
2023-01-03T07:58:48.024Z,17.78
2023-01-03T07:59:48.027Z,17.82
2023-01-03T08:00:48.020Z,17.87
2023-01-03T08:01:48.185Z,17.81
2023-01-03T08:02:48.248Z,17.81
2023-01-03T08:03:48.008Z,17.86
2023-01-03T08:04:48.081Z,17.82
2023-01-03T08:05:48.012Z,17.86
2023-01-03T08:06:48.026Z,17.87
2023-01-03T08:07:48.015Z,17.89
2023-01-03T08:08:47.992Z,17.79
2023-01-03T08:09:48.003Z,17.74
2023-01-03T08:10:47.993Z,17.87
2023-01-03T08:11:47.981Z,17.79
2023-01-03T08:12:47.986Z,17.78
2023-01-03T08:13:47.975Z,17.75
2023-01-03T08:14:48.019Z,17.81
2023-01-03T08:15:48.076Z,17.87
2023-01-03T08:16:47.971Z,17.78
2023-01-03T08:17:47.970Z,17.75
2023-01-03T08:18:48.002Z,17.74
2023-01-03T08:19:47.952Z,17.79
2023-01-03T08:20:47.953Z,17.79
2023-01-03T08:21:47.973Z,17.86
2023-01-03T08:22:47.960Z,17.84
2023-01-03T08:23:47.942Z,17.89
2023-01-03T08:24:47.941Z,17.92
2023-01-03T08:25:47.936Z,17.87
2023-01-03T08:26:47.952Z,17.90
2023-01-03T08:27:50.426Z,17.97
2023-01-03T08:28:47.937Z,17.90
2023-01-03T08:29:47.932Z,17.96
2023-01-03T08:30:47.938Z,18.05
2023-01-03T08:31:48.086Z,17.99
2023-01-03T08:32:47.932Z,18.00
2023-01-03T08:33:47.919Z,18.07
2023-01-03T08:34:47.956Z,17.95
2023-01-03T08:35:47.910Z,18.03
2023-01-03T08:36:47.912Z,18.05
2023-01-03T08:37:47.907Z,18.10
2023-01-03T08:38:47.906Z,18.07
2023-01-03T08:39:47.915Z,18.15
2023-01-03T08:40:47.911Z,18.07
2023-01-03T08:41:47.899Z,18.15
2023-01-03T08:42:47.903Z,18.26
2023-01-03T08:43:47.915Z,18.25
2023-01-03T08:44:47.902Z,18.27
2023-01-03T08:45:47.885Z,18.30
2023-01-03T08:46:47.983Z,18.35
2023-01-03T08:47:47.995Z,18.42
2023-01-03T08:48:47.886Z,18.37
2023-01-03T08:49:47.885Z,18.45
2023-01-03T08:50:47.917Z,18.51
2023-01-03T08:51:47.878Z,18.52
2023-01-03T08:52:47.904Z,18.55
2023-01-03T08:53:47.853Z,18.62
2023-01-03T08:54:47.858Z,18.65
2023-01-03T08:55:47.866Z,18.62
2023-01-03T08:56:47.903Z,18.75
2023-01-03T08:57:47.872Z,18.73
2023-01-03T08:58:47.875Z,18.73
2023-01-03T08:59:47.853Z,18.81
2023-01-03T09:00:47.895Z,18.75
2023-01-03T09:01:48.085Z,18.85
2023-01-03T09:02:48.067Z,18.87
2023-01-03T09:03:47.999Z,18.87
2023-01-03T09:04:47.854Z,18.91
2023-01-03T09:05:47.832Z,18.99
2023-01-03T09:06:47.854Z,18.98
2023-01-03T09:07:47.824Z,19.00
2023-01-03T09:08:47.856Z,18.98
2023-01-03T09:09:47.835Z,19.00
2023-01-03T09:10:48.064Z,19.07
2023-01-03T09:11:47.827Z,19.16
2023-01-03T09:12:47.890Z,19.25
2023-01-03T09:13:47.815Z,19.29
2023-01-03T09:14:47.827Z,19.28
2023-01-03T09:15:47.923Z,19.23
2023-01-03T09:16:49.469Z,19.26
2023-01-03T09:17:47.812Z,19.40
2023-01-03T09:18:47.819Z,19.29
2023-01-03T09:19:47.817Z,19.37
2023-01-03T09:20:47.796Z,19.47
2023-01-03T09:21:47.787Z,19.39
2023-01-03T09:22:47.867Z,19.44
2023-01-03T09:23:47.793Z,19.43
2023-01-03T09:24:47.803Z,19.46
2023-01-03T09:25:47.803Z,19.46
2023-01-03T09:26:53.958Z,19.48
2023-01-03T09:27:47.816Z,19.43
2023-01-03T09:28:47.796Z,19.47
2023-01-03T09:29:47.791Z,19.58
2023-01-03T09:30:47.788Z,19.48
2023-01-03T09:31:47.847Z,19.46
2023-01-03T09:32:47.795Z,19.54
2023-01-03T09:33:47.769Z,19.55
2023-01-03T09:34:47.780Z,19.56
2023-01-03T09:35:47.789Z,19.51
2023-01-03T09:36:47.793Z,19.50
2023-01-03T09:37:49.113Z,19.51
2023-01-03T09:38:47.843Z,19.56
2023-01-03T09:39:47.759Z,19.50
2023-01-03T09:40:47.781Z,19.44
2023-01-03T09:41:47.754Z,19.51
2023-01-03T09:42:47.766Z,19.47
2023-01-03T09:43:47.749Z,19.41
2023-01-03T09:44:47.767Z,19.50
2023-01-03T09:45:47.743Z,19.51
2023-01-03T09:46:47.838Z,19.46
2023-01-03T09:47:47.751Z,19.40
2023-01-03T09:48:47.748Z,19.48
2023-01-03T09:50:18.914Z,19.41
2023-01-03T09:51:17.121Z,19.51
2023-01-03T09:51:47.736Z,19.51
2023-01-03T09:52:47.742Z,19.51
2023-01-03T09:53:47.734Z,19.50
2023-01-03T09:54:47.763Z,19.46
2023-01-03T09:55:47.742Z,19.46
2023-01-03T09:56:47.727Z,19.54
2023-01-03T09:57:47.720Z,19.47
2023-01-03T09:58:47.730Z,19.47
2023-01-03T09:59:48.048Z,19.47
2023-01-03T10:00:47.745Z,19.39
2023-01-03T10:01:47.991Z,19.39
2023-01-03T10:02:47.876Z,19.43
2023-01-03T10:03:51.874Z,19.36
2023-01-03T10:04:47.724Z,19.44
2023-01-03T10:05:47.725Z,19.40
2023-01-03T10:06:47.722Z,19.44
2023-01-03T10:07:47.718Z,19.37
2023-01-03T10:08:47.733Z,19.40
2023-01-03T10:09:47.735Z,19.37
2023-01-03T10:10:47.826Z,19.37
2023-01-03T10:11:47.705Z,19.33
2023-01-03T10:12:47.715Z,19.36
2023-01-03T10:13:47.697Z,19.36
2023-01-03T10:14:47.709Z,19.33
2023-01-03T10:15:47.698Z,19.33
2023-01-03T10:16:47.788Z,19.36
2023-01-03T10:17:47.689Z,19.31
2023-01-03T10:18:47.685Z,19.32
2023-01-03T10:19:47.691Z,19.28
2023-01-03T10:20:47.681Z,19.26
2023-01-03T10:21:47.676Z,19.25
2023-01-03T10:22:47.676Z,19.29
2023-01-03T10:23:47.693Z,19.25
2023-01-03T10:24:47.679Z,19.21
2023-01-03T10:25:47.669Z,19.28
2023-01-03T10:26:47.702Z,19.23
2023-01-03T10:27:47.687Z,19.22
2023-01-03T10:28:47.688Z,19.29
2023-01-03T10:29:47.670Z,19.23
2023-01-03T10:30:53.818Z,19.23
2023-01-03T10:31:47.766Z,19.25
2023-01-03T10:32:47.671Z,19.23
2023-01-03T10:33:47.647Z,19.21
2023-01-03T10:34:47.663Z,19.18
2023-01-03T10:35:47.661Z,19.21
2023-01-03T10:36:47.665Z,19.16
2023-01-03T10:37:47.654Z,19.18
2023-01-03T10:38:52.957Z,19.13
2023-01-03T10:39:47.657Z,19.21
2023-01-03T10:40:47.676Z,19.10
2023-01-03T10:41:47.676Z,19.08
2023-01-03T10:42:47.684Z,19.16
2023-01-03T10:43:47.654Z,19.11
2023-01-03T10:44:47.632Z,19.13
2023-01-03T10:45:49.787Z,19.06
2023-01-03T10:46:47.816Z,19.14
2023-01-03T10:47:47.625Z,19.08
2023-01-03T10:49:47.622Z,19.07
2023-01-03T10:50:47.622Z,19.11
2023-01-03T10:51:47.626Z,19.06
2023-01-03T10:52:47.625Z,19.08
2023-01-03T10:53:47.614Z,18.99
2023-01-03T10:54:47.659Z,19.06
2023-01-03T10:55:47.614Z,18.99
2023-01-03T10:56:47.616Z,19.10
2023-01-03T10:57:47.617Z,18.95
2023-01-03T10:58:47.621Z,19.06
2023-01-03T10:59:47.606Z,18.95
2023-01-03T11:00:47.663Z,19.06
2023-01-03T11:01:47.753Z,19.04
2023-01-03T11:02:47.732Z,19.00
2023-01-03T11:03:51.444Z,19.00
2023-01-03T11:04:47.590Z,18.98
2023-01-03T11:05:47.590Z,18.98
2023-01-03T11:06:47.597Z,18.95
2023-01-03T11:07:47.581Z,18.85
2023-01-03T11:08:47.609Z,19.00
2023-01-03T11:09:51.333Z,19.00
2023-01-03T11:10:47.572Z,18.95
2023-01-03T11:11:47.581Z,18.99
2023-01-03T11:12:47.584Z,18.95
2023-01-03T11:13:47.569Z,18.98
2023-01-03T11:14:47.592Z,18.95
2023-01-03T11:15:47.560Z,18.95
2023-01-03T11:16:47.600Z,18.95
2023-01-03T11:17:47.551Z,18.91
2023-01-03T11:18:47.583Z,19.00
2023-01-03T11:19:47.552Z,18.90
2023-01-03T11:20:47.579Z,18.99
2023-01-03T11:21:47.588Z,18.91
2023-01-03T11:22:47.548Z,18.91
2023-01-03T11:23:47.554Z,18.85
2023-01-03T11:24:47.547Z,18.92
2023-01-03T11:25:47.542Z,18.90
2023-01-03T11:26:47.559Z,18.94
2023-01-03T11:27:47.533Z,18.81
2023-01-03T11:28:47.550Z,18.90
2023-01-03T11:29:47.540Z,18.88
2023-01-03T11:30:47.561Z,18.87
2023-01-03T11:31:47.659Z,18.90
2023-01-03T11:32:47.552Z,18.87
2023-01-03T11:33:47.531Z,18.84
2023-01-03T11:35:21.324Z,18.87
2023-01-03T11:35:47.547Z,18.84
2023-01-03T11:36:48.812Z,18.87
2023-01-03T11:37:47.523Z,18.91
2023-01-03T11:38:47.525Z,18.87
2023-01-03T11:39:47.521Z,18.88
2023-01-03T11:40:47.506Z,18.84
2023-01-03T11:41:47.519Z,18.87
2023-01-03T11:42:47.540Z,18.87
2023-01-03T11:43:47.528Z,18.87
2023-01-03T11:44:47.530Z,18.90
2023-01-03T11:45:49.405Z,18.88
2023-01-03T11:46:47.597Z,18.85
2023-01-03T11:47:47.484Z,18.87
2023-01-03T11:48:47.517Z,18.88
2023-01-03T11:49:47.478Z,18.85
2023-01-03T11:50:47.486Z,18.81
2023-01-03T11:51:47.486Z,18.88
2023-01-03T11:52:47.489Z,18.92
2023-01-03T11:53:49.730Z,18.92
2023-01-03T11:54:52.992Z,18.82
2023-01-03T11:55:47.477Z,18.90
2023-01-03T11:56:47.464Z,18.88
2023-01-03T11:57:47.480Z,18.88
2023-01-03T11:58:47.476Z,19.00
2023-01-03T11:59:47.484Z,18.92
2023-01-03T12:00:47.501Z,18.94
2023-01-03T12:01:47.740Z,18.90
2023-01-03T12:02:47.539Z,18.94
2023-01-03T12:03:47.513Z,18.91
2023-01-03T12:04:47.471Z,18.76
2023-01-03T12:05:47.481Z,18.88
2023-01-03T12:06:47.458Z,18.91
2023-01-03T12:07:48.826Z,18.91
2023-01-03T12:08:47.451Z,18.85
2023-01-03T12:09:47.455Z,18.81
2023-01-03T12:10:47.471Z,18.91
2023-01-03T12:11:47.460Z,18.87
2023-01-03T12:12:47.432Z,18.87
2023-01-03T12:13:47.436Z,18.85
2023-01-03T12:14:47.435Z,18.84
2023-01-03T12:15:47.491Z,18.87
2023-01-03T12:16:47.456Z,18.82
2023-01-03T12:17:47.445Z,18.91
2023-01-03T12:18:47.456Z,18.88
2023-01-03T12:19:47.431Z,18.78
2023-01-03T12:20:47.417Z,18.84
2023-01-03T12:21:47.417Z,18.80
2023-01-03T12:22:47.436Z,18.82
2023-01-03T12:23:47.414Z,18.80
2023-01-03T12:24:47.427Z,18.82
2023-01-03T12:25:47.420Z,18.81
2023-01-03T12:26:47.427Z,18.85
2023-01-03T12:27:47.437Z,18.80
2023-01-03T12:28:47.415Z,18.85
2023-01-03T12:29:47.397Z,18.84
2023-01-03T12:30:47.450Z,18.85
2023-01-03T12:31:47.524Z,18.87
2023-01-03T12:32:47.396Z,18.87
2023-01-03T12:33:47.412Z,18.88
2023-01-03T12:34:47.406Z,18.81
2023-01-03T12:35:47.403Z,18.85
2023-01-03T12:36:47.386Z,18.81
2023-01-03T12:37:47.404Z,18.85
2023-01-03T12:38:47.387Z,18.80
2023-01-03T12:39:47.400Z,18.84
2023-01-03T12:40:47.374Z,18.73
2023-01-03T12:41:47.379Z,18.78
2023-01-03T12:42:47.371Z,18.78
2023-01-03T12:43:47.383Z,18.78
2023-01-03T12:44:47.372Z,18.78
2023-01-03T12:45:47.381Z,18.81
2023-01-03T12:46:47.496Z,18.82
2023-01-03T12:47:47.363Z,18.82
2023-01-03T12:48:47.358Z,18.75
2023-01-03T12:49:47.364Z,18.76
2023-01-03T12:50:47.388Z,18.82
2023-01-03T12:51:47.357Z,18.75
2023-01-03T12:52:47.366Z,18.76
2023-01-03T12:53:47.433Z,18.81